sensor_id;sensor_type;location;lat;lon;timestamp;P1;durP1;ratioP1;P2;durP2;ratioP2
3052;SDS011;1536;51.098;6.414;2023-03-23T00:01:54;3.40;;;3.10;;
3052;SDS011;1536;51.098;6.414;2023-03-23T00:04:21;4.43;;;3.20;;
3052;SDS011;1536;51.098;6.414;2023-03-23T00:06:52;3.90;;;2.90;;
3052;SDS011;1536;51.098;6.414;2023-03-23T00:09:18;3.90;;;2.30;;
3052;SDS011;1536;51.098;6.414;2023-03-23T00:11:48;3.47;;;3.03;;
3052;SDS011;1536;51.098;6.414;2023-03-23T00:14:15;3.67;;;2.37;;
3052;SDS011;1536;51.098;6.414;2023-03-23T00:16:47;2.80;;;2.50;;
3052;SDS011;1536;51.098;6.414;2023-03-23T00:19:14;5.80;;;3.47;;
3052;SDS011;1536;51.098;6.414;2023-03-23T00:21:44;3.40;;;2.70;;
3052;SDS011;1536;51.098;6.414;2023-03-23T00:24:13;4.07;;;2.93;;
3052;SDS011;1536;51.098;6.414;2023-03-23T00:26:42;3.10;;;2.63;;
3052;SDS011;1536;51.098;6.414;2023-03-23T00:29:11;6.77;;;3.00;;
3052;SDS011;1536;51.098;6.414;2023-03-23T00:31:39;2.93;;;2.63;;
3052;SDS011;1536;51.098;6.414;2023-03-23T00:34:06;2.70;;;2.50;;
3052;SDS011;1536;51.098;6.414;2023-03-23T00:36:33;4.63;;;2.90;;
3052;SDS011;1536;51.098;6.414;2023-03-23T00:39:07;5.53;;;2.87;;
3052;SDS011;1536;51.098;6.414;2023-03-23T00:41:36;3.03;;;2.73;;
3052;SDS011;1536;51.098;6.414;2023-03-23T00:44:03;4.50;;;2.80;;
3052;SDS011;1536;51.098;6.414;2023-03-23T00:46:30;3.53;;;2.60;;
3052;SDS011;1536;51.098;6.414;2023-03-23T00:48:57;2.90;;;2.57;;
3052;SDS011;1536;51.098;6.414;2023-03-23T00:51:23;3.23;;;2.80;;
3052;SDS011;1536;51.098;6.414;2023-03-23T00:53:50;2.60;;;2.40;;
3052;SDS011;1536;51.098;6.414;2023-03-23T00:56:17;6.27;;;2.87;;
3052;SDS011;1536;51.098;6.414;2023-03-23T00:58:45;3.20;;;2.90;;
3052;SDS011;1536;51.098;6.414;2023-03-23T01:01:12;6.70;;;2.90;;
3052;SDS011;1536;51.098;6.414;2023-03-23T01:03:39;2.60;;;2.40;;
3052;SDS011;1536;51.098;6.414;2023-03-23T01:06:06;4.00;;;2.80;;
3052;SDS011;1536;51.098;6.414;2023-03-23T01:08:37;2.77;;;2.57;;
3052;SDS011;1536;51.098;6.414;2023-03-23T01:11:10;2.97;;;2.63;;
3052;SDS011;1536;51.098;6.414;2023-03-23T01:13:38;4.00;;;2.70;;
3052;SDS011;1536;51.098;6.414;2023-03-23T01:16:07;4.03;;;2.73;;
3052;SDS011;1536;51.098;6.414;2023-03-23T01:18:35;3.13;;;2.87;;
3052;SDS011;1536;51.098;6.414;2023-03-23T01:21:03;5.23;;;2.87;;
3052;SDS011;1536;51.098;6.414;2023-03-23T01:23:31;3.17;;;2.87;;
3052;SDS011;1536;51.098;6.414;2023-03-23T01:26:01;3.07;;;2.87;;
3052;SDS011;1536;51.098;6.414;2023-03-23T01:28:29;4.63;;;3.13;;
3052;SDS011;1536;51.098;6.414;2023-03-23T01:30:58;4.30;;;4.00;;
3052;SDS011;1536;51.098;6.414;2023-03-23T01:33:27;4.80;;;3.30;;
3052;SDS011;1536;51.098;6.414;2023-03-23T01:35:54;3.60;;;3.30;;
3052;SDS011;1536;51.098;6.414;2023-03-23T01:38:21;3.20;;;2.90;;
3052;SDS011;1536;51.098;6.414;2023-03-23T01:40:48;3.40;;;3.10;;
3052;SDS011;1536;51.098;6.414;2023-03-23T01:43:15;2.90;;;2.67;;
3052;SDS011;1536;51.098;6.414;2023-03-23T01:45:42;4.30;;;2.70;;
3052;SDS011;1536;51.098;6.414;2023-03-23T01:48:10;4.13;;;3.10;;
3052;SDS011;1536;51.098;6.414;2023-03-23T01:50:45;4.07;;;3.37;;
3052;SDS011;1536;51.098;6.414;2023-03-23T01:53:18;5.43;;;3.63;;
3052;SDS011;1536;51.098;6.414;2023-03-23T01:55:45;3.93;;;3.40;;
3052;SDS011;1536;51.098;6.414;2023-03-23T01:58:15;3.17;;;2.87;;
3052;SDS011;1536;51.098;6.414;2023-03-23T02:00:45;5.30;;;3.57;;
3052;SDS011;1536;51.098;6.414;2023-03-23T02:03:12;3.40;;;3.10;;
3052;SDS011;1536;51.098;6.414;2023-03-23T02:05:43;3.57;;;3.27;;
3052;SDS011;1536;51.098;6.414;2023-03-23T02:08:10;4.30;;;3.00;;
3052;SDS011;1536;51.098;6.414;2023-03-23T02:10:40;4.03;;;3.13;;
3052;SDS011;1536;51.098;6.414;2023-03-23T02:13:08;4.43;;;3.20;;
3052;SDS011;1536;51.098;6.414;2023-03-23T02:15:39;3.37;;;3.10;;
3052;SDS011;1536;51.098;6.414;2023-03-23T02:18:16;3.73;;;2.77;;
3052;SDS011;1536;51.098;6.414;2023-03-23T02:27:11;4.37;;;2.80;;
3052;SDS011;1536;51.098;6.414;2023-03-23T02:29:50;4.50;;;3.00;;
3052;SDS011;1536;51.098;6.414;2023-03-23T02:32:34;2.97;;;2.40;;
3052;SDS011;1536;51.098;6.414;2023-03-23T02:35:32;2.57;;;2.20;;
3052;SDS011;1536;51.098;6.414;2023-03-23T02:38:02;2.60;;;2.27;;
3052;SDS011;1536;51.098;6.414;2023-03-23T02:40:35;4.13;;;2.80;;
3052;SDS011;1536;51.098;6.414;2023-03-23T02:43:06;3.70;;;2.50;;
3052;SDS011;1536;51.098;6.414;2023-03-23T02:45:35;3.20;;;2.20;;
3052;SDS011;1536;51.098;6.414;2023-03-23T02:48:04;5.77;;;2.53;;
3052;SDS011;1536;51.098;6.414;2023-03-23T02:50:33;2.90;;;2.70;;
3052;SDS011;1536;51.098;6.414;2023-03-23T02:53:02;2.93;;;2.73;;
3052;SDS011;1536;51.098;6.414;2023-03-23T02:55:32;2.90;;;2.60;;
3052;SDS011;1536;51.098;6.414;2023-03-23T02:58:00;3.40;;;2.80;;
3052;SDS011;1536;51.098;6.414;2023-03-23T03:00:27;2.83;;;2.63;;
3052;SDS011;1536;51.098;6.414;2023-03-23T03:02:54;2.57;;;2.30;;
3052;SDS011;1536;51.098;6.414;2023-03-23T03:05:27;2.37;;;2.17;;
3052;SDS011;1536;51.098;6.414;2023-03-23T03:08:06;3.20;;;2.80;;
3052;SDS011;1536;51.098;6.414;2023-03-23T03:10:42;3.30;;;2.60;;
3052;SDS011;1536;51.098;6.414;2023-03-23T03:13:13;2.43;;;2.20;;
3052;SDS011;1536;51.098;6.414;2023-03-23T03:15:47;3.30;;;2.73;;
3052;SDS011;1536;51.098;6.414;2023-03-23T03:18:21;3.27;;;2.40;;
3052;SDS011;1536;51.098;6.414;2023-03-23T03:20:53;2.53;;;2.33;;
3052;SDS011;1536;51.098;6.414;2023-03-23T03:23:24;3.00;;;2.43;;
3052;SDS011;1536;51.098;6.414;2023-03-23T03:25:54;2.83;;;2.50;;
3052;SDS011;1536;51.098;6.414;2023-03-23T03:28:23;2.57;;;2.37;;
3052;SDS011;1536;51.098;6.414;2023-03-23T03:30:52;3.10;;;2.77;;
3052;SDS011;1536;51.098;6.414;2023-03-23T03:33:20;2.83;;;2.60;;
3052;SDS011;1536;51.098;6.414;2023-03-23T03:35:51;4.37;;;2.70;;
3052;SDS011;1536;51.098;6.414;2023-03-23T03:38:20;3.30;;;2.50;;
3052;SDS011;1536;51.098;6.414;2023-03-23T03:40:47;3.80;;;2.50;;
3052;SDS011;1536;51.098;6.414;2023-03-23T03:43:14;2.83;;;2.63;;
3052;SDS011;1536;51.098;6.414;2023-03-23T03:45:41;3.03;;;2.73;;
3052;SDS011;1536;51.098;6.414;2023-03-23T03:48:07;3.23;;;2.60;;
3052;SDS011;1536;51.098;6.414;2023-03-23T03:50:34;2.90;;;2.67;;
3052;SDS011;1536;51.098;6.414;2023-03-23T03:53:03;4.10;;;3.00;;
3052;SDS011;1536;51.098;6.414;2023-03-23T03:55:31;3.00;;;2.73;;
3052;SDS011;1536;51.098;6.414;2023-03-23T03:58:00;2.67;;;2.43;;
3052;SDS011;1536;51.098;6.414;2023-03-23T04:00:27;2.70;;;2.50;;
3052;SDS011;1536;51.098;6.414;2023-03-23T04:02:54;3.50;;;3.20;;
3052;SDS011;1536;51.098;6.414;2023-03-23T04:05:24;3.83;;;2.97;;
3052;SDS011;1536;51.098;6.414;2023-03-23T04:07:53;2.67;;;2.40;;
3052;SDS011;1536;51.098;6.414;2023-03-23T04:10:27;7.10;;;3.00;;
3052;SDS011;1536;51.098;6.414;2023-03-23T04:12:55;3.23;;;2.73;;
3052;SDS011;1536;51.098;6.414;2023-03-23T04:15:22;3.33;;;2.60;;
3052;SDS011;1536;51.098;6.414;2023-03-23T04:17:49;3.57;;;2.97;;
3052;SDS011;1536;51.098;6.414;2023-03-23T04:20:16;4.33;;;2.87;;
3052;SDS011;1536;51.098;6.414;2023-03-23T04:22:43;4.73;;;3.60;;
3052;SDS011;1536;51.098;6.414;2023-03-23T04:25:14;3.20;;;2.90;;
3052;SDS011;1536;51.098;6.414;2023-03-23T04:27:43;2.30;;;2.10;;
3052;SDS011;1536;51.098;6.414;2023-03-23T04:30:12;3.93;;;3.20;;
3052;SDS011;1536;51.098;6.414;2023-03-23T04:32:39;3.53;;;2.57;;
3052;SDS011;1536;51.098;6.414;2023-03-23T04:35:08;3.20;;;2.93;;
3052;SDS011;1536;51.098;6.414;2023-03-23T04:37:37;3.37;;;3.07;;
3052;SDS011;1536;51.098;6.414;2023-03-23T04:40:04;4.77;;;3.20;;
3052;SDS011;1536;51.098;6.414;2023-03-23T04:42:36;5.00;;;3.60;;
3052;SDS011;1536;51.098;6.414;2023-03-23T04:45:06;3.40;;;2.90;;
3052;SDS011;1536;51.098;6.414;2023-03-23T04:47:35;3.33;;;2.80;;
3052;SDS011;1536;51.098;6.414;2023-03-23T04:50:05;3.10;;;2.87;;
3052;SDS011;1536;51.098;6.414;2023-03-23T04:52:33;3.13;;;2.83;;
3052;SDS011;1536;51.098;6.414;2023-03-23T04:55:02;4.63;;;2.83;;
3052;SDS011;1536;51.098;6.414;2023-03-23T04:57:30;3.40;;;3.10;;
3052;SDS011;1536;51.098;6.414;2023-03-23T04:59:57;3.80;;;3.50;;
3052;SDS011;1536;51.098;6.414;2023-03-23T05:02:26;4.90;;;3.50;;
3052;SDS011;1536;51.098;6.414;2023-03-23T05:04:55;3.77;;;2.83;;
3052;SDS011;1536;51.098;6.414;2023-03-23T05:07:22;3.17;;;2.90;;
3052;SDS011;1536;51.098;6.414;2023-03-23T05:09:49;3.80;;;3.27;;
3052;SDS011;1536;51.098;6.414;2023-03-23T05:12:16;5.07;;;3.27;;
3052;SDS011;1536;51.098;6.414;2023-03-23T05:14:43;4.23;;;3.00;;
3052;SDS011;1536;51.098;6.414;2023-03-23T05:17:10;9.13;;;3.20;;
3052;SDS011;1536;51.098;6.414;2023-03-23T05:19:39;3.47;;;2.30;;
3052;SDS011;1536;51.098;6.414;2023-03-23T05:22:08;3.90;;;3.03;;
3052;SDS011;1536;51.098;6.414;2023-03-23T05:24:37;4.07;;;3.33;;
3052;SDS011;1536;51.098;6.414;2023-03-23T05:27:04;6.27;;;3.30;;
3052;SDS011;1536;51.098;6.414;2023-03-23T05:29:32;3.70;;;2.50;;
3052;SDS011;1536;51.098;6.414;2023-03-23T05:32:00;3.90;;;3.60;;
3052;SDS011;1536;51.098;6.414;2023-03-23T05:34:28;5.23;;;2.97;;
3052;SDS011;1536;51.098;6.414;2023-03-23T05:36:58;4.30;;;3.30;;
3052;SDS011;1536;51.098;6.414;2023-03-23T05:39:25;6.13;;;3.10;;
3052;SDS011;1536;51.098;6.414;2023-03-23T05:41:52;3.00;;;2.50;;
3052;SDS011;1536;51.098;6.414;2023-03-23T05:44:20;3.20;;;2.87;;
3052;SDS011;1536;51.098;6.414;2023-03-23T05:46:47;2.97;;;2.70;;
3052;SDS011;1536;51.098;6.414;2023-03-23T05:49:14;7.83;;;3.90;;
3052;SDS011;1536;51.098;6.414;2023-03-23T05:51:42;2.90;;;2.70;;
3052;SDS011;1536;51.098;6.414;2023-03-23T05:54:10;3.20;;;2.67;;
3052;SDS011;1536;51.098;6.414;2023-03-23T05:56:37;4.60;;;2.87;;
3052;SDS011;1536;51.098;6.414;2023-03-23T05:59:04;5.20;;;2.87;;
3052;SDS011;1536;51.098;6.414;2023-03-23T06:01:31;7.20;;;3.10;;
3052;SDS011;1536;51.098;6.414;2023-03-23T06:03:57;3.57;;;2.80;;
3052;SDS011;1536;51.098;6.414;2023-03-23T06:06:24;2.93;;;1.90;;
3052;SDS011;1536;51.098;6.414;2023-03-23T06:08:51;4.10;;;2.80;;
3052;SDS011;1536;51.098;6.414;2023-03-23T06:11:20;6.27;;;2.77;;
3052;SDS011;1536;51.098;6.414;2023-03-23T06:13:47;3.70;;;2.37;;
3052;SDS011;1536;51.098;6.414;2023-03-23T06:16:27;4.70;;;2.20;;
3052;SDS011;1536;51.098;6.414;2023-03-23T06:18:54;3.97;;;2.40;;
3052;SDS011;1536;51.098;6.414;2023-03-23T06:21:22;2.87;;;2.37;;
3052;SDS011;1536;51.098;6.414;2023-03-23T06:23:49;4.10;;;2.60;;
3052;SDS011;1536;51.098;6.414;2023-03-23T06:26:15;7.70;;;3.10;;
3052;SDS011;1536;51.098;6.414;2023-03-23T06:28:46;7.70;;;2.57;;
3052;SDS011;1536;51.098;6.414;2023-03-23T06:31:14;3.13;;;2.40;;
3052;SDS011;1536;51.098;6.414;2023-03-23T06:33:42;5.00;;;2.80;;
3052;SDS011;1536;51.098;6.414;2023-03-23T06:36:09;5.60;;;2.67;;
3052;SDS011;1536;51.098;6.414;2023-03-23T06:38:37;2.40;;;2.20;;
3052;SDS011;1536;51.098;6.414;2023-03-23T06:41:04;4.70;;;2.77;;
3052;SDS011;1536;51.098;6.414;2023-03-23T06:43:31;4.30;;;2.77;;
3052;SDS011;1536;51.098;6.414;2023-03-23T06:45:59;4.20;;;2.57;;
3052;SDS011;1536;51.098;6.414;2023-03-23T06:48:26;3.63;;;2.70;;
3052;SDS011;1536;51.098;6.414;2023-03-23T06:50:53;4.57;;;2.33;;
3052;SDS011;1536;51.098;6.414;2023-03-23T06:53:20;5.67;;;2.53;;
3052;SDS011;1536;51.098;6.414;2023-03-23T06:55:46;7.33;;;2.53;;
3052;SDS011;1536;51.098;6.414;2023-03-23T06:58:13;5.23;;;2.47;;
3052;SDS011;1536;51.098;6.414;2023-03-23T07:00:40;5.17;;;2.37;;
3052;SDS011;1536;51.098;6.414;2023-03-23T07:03:08;2.80;;;2.30;;
3052;SDS011;1536;51.098;6.414;2023-03-23T07:05:35;4.37;;;2.90;;
3052;SDS011;1536;51.098;6.414;2023-03-23T07:08:02;4.40;;;2.63;;
3052;SDS011;1536;51.098;6.414;2023-03-23T07:10:29;4.50;;;2.53;;
3052;SDS011;1536;51.098;6.414;2023-03-23T07:12:56;2.60;;;2.20;;
3052;SDS011;1536;51.098;6.414;2023-03-23T07:15:24;2.47;;;2.27;;
3052;SDS011;1536;51.098;6.414;2023-03-23T07:17:51;3.10;;;1.90;;
3052;SDS011;1536;51.098;6.414;2023-03-23T07:20:20;2.87;;;1.97;;
3052;SDS011;1536;51.098;6.414;2023-03-23T07:22:47;3.93;;;2.00;;
3052;SDS011;1536;51.098;6.414;2023-03-23T07:25:14;4.27;;;2.93;;
3052;SDS011;1536;51.098;6.414;2023-03-23T07:27:56;1.83;;;1.73;;
3052;SDS011;1536;51.098;6.414;2023-03-23T07:30:23;3.53;;;2.37;;
3052;SDS011;1536;51.098;6.414;2023-03-23T07:32:49;3.07;;;2.40;;
3052;SDS011;1536;51.098;6.414;2023-03-23T07:35:16;5.13;;;2.17;;
3052;SDS011;1536;51.098;6.414;2023-03-23T07:37:44;4.10;;;2.13;;
3052;SDS011;1536;51.098;6.414;2023-03-23T07:40:14;3.70;;;2.10;;
3052;SDS011;1536;51.098;6.414;2023-03-23T07:42:41;5.53;;;2.20;;
3052;SDS011;1536;51.098;6.414;2023-03-23T07:45:09;3.47;;;2.23;;
3052;SDS011;1536;51.098;6.414;2023-03-23T07:47:37;3.97;;;2.27;;
3052;SDS011;1536;51.098;6.414;2023-03-23T07:50:05;3.73;;;2.00;;
3052;SDS011;1536;51.098;6.414;2023-03-23T07:52:32;4.60;;;2.10;;
3052;SDS011;1536;51.098;6.414;2023-03-23T07:55:01;2.27;;;2.00;;
3052;SDS011;1536;51.098;6.414;2023-03-23T07:57:28;4.70;;;2.70;;
3052;SDS011;1536;51.098;6.414;2023-03-23T07:59:55;5.43;;;2.27;;
3052;SDS011;1536;51.098;6.414;2023-03-23T08:02:23;6.87;;;2.27;;
3052;SDS011;1536;51.098;6.414;2023-03-23T08:04:51;6.03;;;2.73;;
3052;SDS011;1536;51.098;6.414;2023-03-23T08:07:18;3.80;;;1.90;;
3052;SDS011;1536;51.098;6.414;2023-03-23T08:09:46;3.67;;;2.10;;
3052;SDS011;1536;51.098;6.414;2023-03-23T08:12:15;4.27;;;2.50;;
3052;SDS011;1536;51.098;6.414;2023-03-23T08:14:42;7.73;;;1.90;;
3052;SDS011;1536;51.098;6.414;2023-03-23T08:17:08;3.80;;;2.43;;
3052;SDS011;1536;51.098;6.414;2023-03-23T08:19:35;3.10;;;2.10;;
3052;SDS011;1536;51.098;6.414;2023-03-23T08:22:02;1.83;;;1.67;;
3052;SDS011;1536;51.098;6.414;2023-03-23T08:24:29;6.90;;;2.20;;
3052;SDS011;1536;51.098;6.414;2023-03-23T08:26:57;6.03;;;2.50;;
3052;SDS011;1536;51.098;6.414;2023-03-23T08:29:26;2.30;;;2.00;;
3052;SDS011;1536;51.098;6.414;2023-03-23T08:31:53;4.50;;;2.30;;
3052;SDS011;1536;51.098;6.414;2023-03-23T08:34:20;3.07;;;2.07;;
3052;SDS011;1536;51.098;6.414;2023-03-23T08:36:47;6.23;;;2.67;;
3052;SDS011;1536;51.098;6.414;2023-03-23T08:39:16;6.60;;;2.83;;
3052;SDS011;1536;51.098;6.414;2023-03-23T08:41:43;3.50;;;2.27;;
3052;SDS011;1536;51.098;6.414;2023-03-23T08:44:11;4.63;;;2.33;;
3052;SDS011;1536;51.098;6.414;2023-03-23T08:46:39;5.60;;;2.87;;
3052;SDS011;1536;51.098;6.414;2023-03-23T08:49:06;3.43;;;2.60;;
3052;SDS011;1536;51.098;6.414;2023-03-23T08:51:33;5.43;;;2.57;;
3052;SDS011;1536;51.098;6.414;2023-03-23T08:54:00;3.77;;;2.20;;
3052;SDS011;1536;51.098;6.414;2023-03-23T08:56:27;6.17;;;2.43;;
3052;SDS011;1536;51.098;6.414;2023-03-23T08:58:54;3.23;;;1.97;;
3052;SDS011;1536;51.098;6.414;2023-03-23T09:01:20;2.53;;;2.10;;
3052;SDS011;1536;51.098;6.414;2023-03-23T09:03:49;4.13;;;1.87;;
3052;SDS011;1536;51.098;6.414;2023-03-23T09:06:16;2.33;;;2.13;;
3052;SDS011;1536;51.098;6.414;2023-03-23T09:08:43;4.33;;;2.00;;
3052;SDS011;1536;51.098;6.414;2023-03-23T09:11:10;5.47;;;2.27;;
3052;SDS011;1536;51.098;6.414;2023-03-23T09:13:37;5.67;;;2.80;;
3052;SDS011;1536;51.098;6.414;2023-03-23T09:16:06;2.47;;;2.20;;
3052;SDS011;1536;51.098;6.414;2023-03-23T09:18:33;7.20;;;2.83;;
3052;SDS011;1536;51.098;6.414;2023-03-23T09:21:02;2.53;;;2.03;;
3052;SDS011;1536;51.098;6.414;2023-03-23T09:23:30;5.87;;;2.97;;
3052;SDS011;1536;51.098;6.414;2023-03-23T09:25:57;5.87;;;1.97;;
3052;SDS011;1536;51.098;6.414;2023-03-23T09:28:26;3.67;;;1.90;;
3052;SDS011;1536;51.098;6.414;2023-03-23T09:30:54;3.70;;;2.20;;
3052;SDS011;1536;51.098;6.414;2023-03-23T09:33:22;2.70;;;2.10;;
3052;SDS011;1536;51.098;6.414;2023-03-23T09:35:49;5.60;;;2.30;;
3052;SDS011;1536;51.098;6.414;2023-03-23T09:38:18;6.67;;;2.30;;
3052;SDS011;1536;51.098;6.414;2023-03-23T09:40:47;4.87;;;1.70;;
3052;SDS011;1536;51.098;6.414;2023-03-23T09:43:20;2.67;;;2.40;;
3052;SDS011;1536;51.098;6.414;2023-03-23T09:46:11;4.83;;;1.97;;
3052;SDS011;1536;51.098;6.414;2023-03-23T09:49:01;3.10;;;2.00;;
3052;SDS011;1536;51.098;6.414;2023-03-23T09:51:37;1.50;;;1.20;;
3052;SDS011;1536;51.098;6.414;2023-03-23T09:54:11;4.10;;;1.47;;
3052;SDS011;1536;51.098;6.414;2023-03-23T09:56:45;2.30;;;1.10;;
3052;SDS011;1536;51.098;6.414;2023-03-23T09:59:15;2.47;;;1.07;;
3052;SDS011;1536;51.098;6.414;2023-03-23T10:01:47;2.80;;;1.67;;
3052;SDS011;1536;51.098;6.414;2023-03-23T10:04:17;1.20;;;1.10;;
3052;SDS011;1536;51.098;6.414;2023-03-23T10:06:53;4.00;;;1.27;;
3052;SDS011;1536;51.098;6.414;2023-03-23T10:09:26;1.60;;;1.30;;
3052;SDS011;1536;51.098;6.414;2023-03-23T10:11:57;1.43;;;1.17;;
3052;SDS011;1536;51.098;6.414;2023-03-23T10:14:36;1.73;;;1.30;;
3052;SDS011;1536;51.098;6.414;2023-03-23T10:17:13;3.23;;;1.70;;
3052;SDS011;1536;51.098;6.414;2023-03-23T10:19:46;1.57;;;1.40;;
3052;SDS011;1536;51.098;6.414;2023-03-23T10:22:16;1.40;;;1.00;;
3052;SDS011;1536;51.098;6.414;2023-03-23T10:24:50;5.53;;;1.70;;
3052;SDS011;1536;51.098;6.414;2023-03-23T10:27:24;2.13;;;1.50;;
3052;SDS011;1536;51.098;6.414;2023-03-23T10:29:55;5.03;;;1.53;;
3052;SDS011;1536;51.098;6.414;2023-03-23T10:32:38;2.97;;;1.23;;
3052;SDS011;1536;51.098;6.414;2023-03-23T10:35:09;2.63;;;1.20;;
3052;SDS011;1536;51.098;6.414;2023-03-23T10:37:41;2.50;;;1.60;;
3052;SDS011;1536;51.098;6.414;2023-03-23T10:42:43;2.30;;;1.30;;
3052;SDS011;1536;51.098;6.414;2023-03-23T10:45:12;2.93;;;1.47;;
3052;SDS011;1536;51.098;6.414;2023-03-23T10:47:45;2.40;;;1.50;;
3052;SDS011;1536;51.098;6.414;2023-03-23T10:50:16;1.77;;;1.43;;
3052;SDS011;1536;51.098;6.414;2023-03-23T10:52:47;3.20;;;1.40;;
3052;SDS011;1536;51.098;6.414;2023-03-23T10:55:20;2.10;;;1.40;;
3052;SDS011;1536;51.098;6.414;2023-03-23T10:57:58;1.93;;;1.20;;
3052;SDS011;1536;51.098;6.414;2023-03-23T11:00:27;6.03;;;1.33;;
3052;SDS011;1536;51.098;6.414;2023-03-23T11:02:58;8.17;;;2.20;;
3052;SDS011;1536;51.098;6.414;2023-03-23T11:05:27;3.53;;;1.40;;
3052;SDS011;1536;51.098;6.414;2023-03-23T11:08:00;2.20;;;1.23;;
3052;SDS011;1536;51.098;6.414;2023-03-23T11:10:47;2.60;;;1.20;;
3052;SDS011;1536;51.098;6.414;2023-03-23T11:13:16;3.03;;;1.17;;
3052;SDS011;1536;51.098;6.414;2023-03-23T11:15:46;1.80;;;1.47;;
3052;SDS011;1536;51.098;6.414;2023-03-23T11:18:18;3.10;;;1.47;;
3052;SDS011;1536;51.098;6.414;2023-03-23T11:20:48;2.43;;;1.70;;
3052;SDS011;1536;51.098;6.414;2023-03-23T11:23:19;2.00;;;1.30;;
3052;SDS011;1536;51.098;6.414;2023-03-23T11:25:54;4.30;;;2.13;;
3052;SDS011;1536;51.098;6.414;2023-03-23T11:28:35;2.40;;;1.67;;
3052;SDS011;1536;51.098;6.414;2023-03-23T11:31:04;2.70;;;1.50;;
3052;SDS011;1536;51.098;6.414;2023-03-23T11:33:35;3.10;;;1.70;;
3052;SDS011;1536;51.098;6.414;2023-03-23T11:36:05;4.17;;;1.90;;
3052;SDS011;1536;51.098;6.414;2023-03-23T11:38:33;2.30;;;2.10;;
3052;SDS011;1536;51.098;6.414;2023-03-23T11:41:08;2.20;;;2.00;;
3052;SDS011;1536;51.098;6.414;2023-03-23T11:43:39;6.93;;;4.07;;
3052;SDS011;1536;51.098;6.414;2023-03-23T11:46:10;3.30;;;3.00;;
3052;SDS011;1536;51.098;6.414;2023-03-23T11:48:43;4.17;;;3.30;;
3052;SDS011;1536;51.098;6.414;2023-03-23T11:51:17;4.23;;;3.47;;
3052;SDS011;1536;51.098;6.414;2023-03-23T11:53:50;3.97;;;3.57;;
3052;SDS011;1536;51.098;6.414;2023-03-23T11:56:25;4.53;;;2.70;;
3052;SDS011;1536;51.098;6.414;2023-03-23T11:58:56;3.67;;;3.20;;
3052;SDS011;1536;51.098;6.414;2023-03-23T12:01:27;3.20;;;2.90;;
3052;SDS011;1536;51.098;6.414;2023-03-23T12:04:04;3.27;;;2.90;;
3052;SDS011;1536;51.098;6.414;2023-03-23T12:06:55;4.00;;;2.90;;
3052;SDS011;1536;51.098;6.414;2023-03-23T12:09:31;4.90;;;3.03;;
3052;SDS011;1536;51.098;6.414;2023-03-23T12:12:10;5.70;;;3.50;;
3052;SDS011;1536;51.098;6.414;2023-03-23T12:14:44;7.13;;;3.50;;
3052;SDS011;1536;51.098;6.414;2023-03-23T12:17:23;3.83;;;3.10;;
3052;SDS011;1536;51.098;6.414;2023-03-23T12:20:00;3.10;;;2.80;;
3052;SDS011;1536;51.098;6.414;2023-03-23T12:22:38;3.97;;;2.90;;
3052;SDS011;1536;51.098;6.414;2023-03-23T12:25:33;4.53;;;2.90;;
3052;SDS011;1536;51.098;6.414;2023-03-23T12:28:14;3.40;;;3.10;;
3052;SDS011;1536;51.098;6.414;2023-03-23T12:30:49;6.33;;;3.80;;
3052;SDS011;1536;51.098;6.414;2023-03-23T12:33:26;5.97;;;3.80;;
3052;SDS011;1536;51.098;6.414;2023-03-23T12:36:03;5.37;;;3.20;;
3052;SDS011;1536;51.098;6.414;2023-03-23T12:38:52;6.53;;;3.90;;
3052;SDS011;1536;51.098;6.414;2023-03-23T12:41:32;9.10;;;5.20;;
3052;SDS011;1536;51.098;6.414;2023-03-23T12:44:05;7.37;;;4.77;;
3052;SDS011;1536;51.098;6.414;2023-03-23T12:46:54;4.60;;;3.70;;
3052;SDS011;1536;51.098;6.414;2023-03-23T12:49:31;4.73;;;3.40;;
3052;SDS011;1536;51.098;6.414;2023-03-23T12:52:02;3.60;;;3.30;;
3052;SDS011;1536;51.098;6.414;2023-03-23T12:54:37;4.40;;;3.30;;
3052;SDS011;1536;51.098;6.414;2023-03-23T12:57:14;4.80;;;3.83;;
3052;SDS011;1536;51.098;6.414;2023-03-23T12:59:47;5.13;;;3.37;;
3052;SDS011;1536;51.098;6.414;2023-03-23T13:02:19;3.73;;;2.60;;
3052;SDS011;1536;51.098;6.414;2023-03-23T13:04:52;4.00;;;2.90;;
3052;SDS011;1536;51.098;6.414;2023-03-23T13:07:26;3.77;;;2.97;;
3052;SDS011;1536;51.098;6.414;2023-03-23T13:09:58;2.80;;;2.60;;
3052;SDS011;1536;51.098;6.414;2023-03-23T13:12:31;4.07;;;2.70;;
3052;SDS011;1536;51.098;6.414;2023-03-23T13:15:07;2.67;;;2.47;;
3052;SDS011;1536;51.098;6.414;2023-03-23T13:17:46;5.80;;;2.83;;
3052;SDS011;1536;51.098;6.414;2023-03-23T13:20:31;4.93;;;2.87;;
3052;SDS011;1536;51.098;6.414;2023-03-23T13:23:08;2.53;;;2.33;;
3052;SDS011;1536;51.098;6.414;2023-03-23T13:25:43;4.07;;;3.10;;
3052;SDS011;1536;51.098;6.414;2023-03-23T13:28:15;4.43;;;3.27;;
3052;SDS011;1536;51.098;6.414;2023-03-23T13:30:54;5.67;;;3.47;;
3052;SDS011;1536;51.098;6.414;2023-03-23T13:33:22;3.63;;;2.40;;
3052;SDS011;1536;51.098;6.414;2023-03-23T13:35:50;4.00;;;2.60;;
3052;SDS011;1536;51.098;6.414;2023-03-23T13:38:19;4.30;;;2.20;;
3052;SDS011;1536;51.098;6.414;2023-03-23T13:40:48;2.70;;;1.97;;
3052;SDS011;1536;51.098;6.414;2023-03-23T13:43:24;3.03;;;1.67;;
3052;SDS011;1536;51.098;6.414;2023-03-23T13:45:54;3.57;;;3.00;;
3052;SDS011;1536;51.098;6.414;2023-03-23T13:48:22;3.07;;;1.30;;
3052;SDS011;1536;51.098;6.414;2023-03-23T13:50:52;1.93;;;1.47;;
3052;SDS011;1536;51.098;6.414;2023-03-23T13:53:23;3.20;;;1.50;;
3052;SDS011;1536;51.098;6.414;2023-03-23T13:56:04;2.50;;;1.77;;
3052;SDS011;1536;51.098;6.414;2023-03-23T13:58:43;4.60;;;1.80;;
3052;SDS011;1536;51.098;6.414;2023-03-23T14:01:14;3.53;;;1.50;;
3052;SDS011;1536;51.098;6.414;2023-03-23T14:03:43;3.13;;;1.50;;
3052;SDS011;1536;51.098;6.414;2023-03-23T14:06:16;5.47;;;1.90;;
3052;SDS011;1536;51.098;6.414;2023-03-23T14:08:45;3.70;;;1.97;;
3052;SDS011;1536;51.098;6.414;2023-03-23T14:11:17;6.00;;;2.40;;
3052;SDS011;1536;51.098;6.414;2023-03-23T14:13:50;6.90;;;2.30;;
3052;SDS011;1536;51.098;6.414;2023-03-23T14:16:35;1.83;;;1.40;;
3052;SDS011;1536;51.098;6.414;2023-03-23T14:19:04;6.77;;;2.50;;
3052;SDS011;1536;51.098;6.414;2023-03-23T14:21:49;8.80;;;2.47;;
3052;SDS011;1536;51.098;6.414;2023-03-23T14:24:19;2.90;;;2.03;;
3052;SDS011;1536;51.098;6.414;2023-03-23T14:26:49;4.17;;;2.70;;
3052;SDS011;1536;51.098;6.414;2023-03-23T14:29:17;4.87;;;2.20;;
3052;SDS011;1536;51.098;6.414;2023-03-23T14:31:47;4.63;;;2.50;;
3052;SDS011;1536;51.098;6.414;2023-03-23T14:34:18;4.70;;;2.70;;
3052;SDS011;1536;51.098;6.414;2023-03-23T14:36:46;7.27;;;2.77;;
3052;SDS011;1536;51.098;6.414;2023-03-23T14:39:16;4.07;;;2.50;;
3052;SDS011;1536;51.098;6.414;2023-03-23T14:41:46;4.67;;;2.20;;
3052;SDS011;1536;51.098;6.414;2023-03-23T14:44:14;3.43;;;2.70;;
3052;SDS011;1536;51.098;6.414;2023-03-23T14:46:43;5.37;;;2.53;;
3052;SDS011;1536;51.098;6.414;2023-03-23T14:49:14;5.03;;;2.53;;
3052;SDS011;1536;51.098;6.414;2023-03-23T14:51:47;6.53;;;2.20;;
3052;SDS011;1536;51.098;6.414;2023-03-23T14:54:14;6.07;;;2.63;;
3052;SDS011;1536;51.098;6.414;2023-03-23T14:56:41;8.27;;;2.20;;
3052;SDS011;1536;51.098;6.414;2023-03-23T14:59:09;4.73;;;2.67;;
3052;SDS011;1536;51.098;6.414;2023-03-23T15:01:37;6.63;;;3.33;;
3052;SDS011;1536;51.098;6.414;2023-03-23T15:04:08;3.43;;;2.43;;
3052;SDS011;1536;51.098;6.414;2023-03-23T15:06:37;3.50;;;2.60;;
3052;SDS011;1536;51.098;6.414;2023-03-23T15:09:07;7.20;;;2.43;;
3052;SDS011;1536;51.098;6.414;2023-03-23T15:11:39;8.10;;;2.70;;
3052;SDS011;1536;51.098;6.414;2023-03-23T15:14:10;3.70;;;2.07;;
3052;SDS011;1536;51.098;6.414;2023-03-23T15:16:45;5.90;;;2.90;;
3052;SDS011;1536;51.098;6.414;2023-03-23T15:19:15;6.30;;;2.80;;
3052;SDS011;1536;51.098;6.414;2023-03-23T15:21:48;4.80;;;2.33;;
3052;SDS011;1536;51.098;6.414;2023-03-23T15:24:24;5.50;;;2.57;;
3052;SDS011;1536;51.098;6.414;2023-03-23T15:26:53;6.50;;;2.70;;
3052;SDS011;1536;51.098;6.414;2023-03-23T15:29:28;4.20;;;2.93;;
3052;SDS011;1536;51.098;6.414;2023-03-23T15:31:55;5.50;;;3.03;;
3052;SDS011;1536;51.098;6.414;2023-03-23T15:34:28;7.93;;;3.13;;
3052;SDS011;1536;51.098;6.414;2023-03-23T15:36:58;3.97;;;3.03;;
3052;SDS011;1536;51.098;6.414;2023-03-23T15:39:27;11.73;;;3.70;;
3052;SDS011;1536;51.098;6.414;2023-03-23T15:41:55;5.30;;;3.93;;
3052;SDS011;1536;51.098;6.414;2023-03-23T15:44:26;9.93;;;5.20;;